Time;durP1;ratioP1;P1;durP2;ratioP2;P2;SDS_P1;SDS_P2;PMS_P1;PMS_P2;Temp;Humidity;BMP_temperature;BMP_pressure;BME280_temperature;BME280_humidity;BME280_pressure;Samples;Min_cycle;Max_cycle;Signal;HPM_P1;HPM_P2
2022/03/08 00:01:20;;;;;;;;;;;;;;;1.36;80.07;102512.72;4986467;28;19937;-76
2022/03/08 00:03:46;;;;;;;;;;;;;;;1.35;79.81;102510.97;4986153;28;19922;-72
2022/03/08 00:06:11;;;;;;;;;;;;;;;1.38;79.61;102508.47;4985615;28;20297;-73
2022/03/08 00:08:36;;;;;;;;;;;;;;;1.46;78.97;102506.00;4988098;28;20025;-72
2022/03/08 00:11:03;;;;;;;;;;;;;;;1.41;78.95;102502.44;4984546;28;19925;-73
2022/03/08 00:13:28;;;;;;;;;;;;;;;1.39;79.11;102499.84;4989154;28;19925;-73
2022/03/08 00:15:54;;;;;;;;;;;;;;;1.42;78.64;102493.00;5017330;28;19922;-73
2022/03/08 00:18:19;;;;;;;;;;;;;;;1.45;78.60;102501.69;4988757;28;19985;-74
2022/03/08 00:20:44;;;;;;;;;;;;;;;1.44;78.35;102486.09;5002372;28;20309;-73
2022/03/08 00:23:10;;;;;;;;;;;;;;;1.42;78.85;102493.00;4988491;28;19926;-75
2022/03/08 00:25:35;;;;;;;;;;;;;;;1.35;78.50;102492.00;4982616;28;19928;-73
2022/03/08 00:28:00;;;;;;;;;;;;;;;1.37;78.88;102485.13;4987726;28;19941;-74
2022/03/08 00:30:27;;;;;;;;;;;;;;;1.34;79.34;102483.34;4988293;28;19972;-77
2022/03/08 00:32:52;;;;;;;;;;;;;;;1.30;78.96;102478.97;4986024;28;19998;-75
2022/03/08 00:35:18;;;;;;;;;;;;;;;1.39;78.81;102481.72;4986553;28;20282;-75
2022/03/08 00:37:44;;;;;;;;;;;;;;;1.31;79.19;102469.47;4990483;28;19949;-74
2022/03/08 00:40:10;;;;;;;;;;;;;;;1.30;79.90;102472.91;4986905;28;19929;-77
2022/03/08 00:42:36;;;;;;;;;;;;;;;1.23;79.19;102477.97;4989160;28;19993;-75
2022/03/08 00:45:02;;;;;;;;;;;;;;;1.23;79.22;102466.72;4986552;28;19930;-73
2022/03/08 00:47:27;;;;;;;;;;;;;;;1.19;79.16;102463.22;4993399;28;19973;-73
2022/03/08 00:49:53;;;;;;;;;;;;;;;1.23;79.14;102467.63;4989121;28;20623;-73
2022/03/08 00:52:18;;;;;;;;;;;;;;;1.28;78.68;102465.13;4990498;28;19922;-75
2022/03/08 00:54:43;;;;;;;;;;;;;;;1.29;78.58;102465.97;4989890;28;19941;-72
2022/03/08 00:57:08;;;;;;;;;;;;;;;1.27;78.41;102463.38;4989215;28;19961;-72
2022/03/08 00:59:34;;;;;;;;;;;;;;;1.32;78.01;102461.75;5020909;28;20024;-73
2022/03/08 01:01:59;;;;;;;;;;;;;;;1.34;77.75;102459.19;4976917;28;19953;-73
2022/03/08 01:04:25;;;;;;;;;;;;;;;1.34;77.76;102457.44;4971801;28;19923;-77
2022/03/08 01:06:50;;;;;;;;;;;;;;;1.33;77.36;102454.84;4974066;28;20066;-76
2022/03/08 01:09:15;;;;;;;;;;;;;;;1.38;77.49;102448.91;4972888;28;20361;-76
2022/03/08 01:11:42;;;;;;;;;;;;;;;1.39;76.73;102449.75;4976528;28;19929;-76
2022/03/08 01:14:08;;;;;;;;;;;;;;;1.35;77.06;102447.97;4991998;28;19933;-77
2022/03/08 01:16:34;;;;;;;;;;;;;;;1.32;76.92;102446.22;4983323;28;19926;-78
2022/03/08 01:18:59;;;;;;;;;;;;;;;1.30;76.57;102437.53;4972527;28;19949;-77
2022/03/08 01:21:25;;;;;;;;;;;;;;;1.31;74.86;102434.09;4977857;28;19926;-74
2022/03/08 01:23:50;;;;;;;;;;;;;;;1.35;74.55;102424.66;4984154;28;19926;-78
2022/03/08 01:26:16;;;;;;;;;;;;;;;1.34;73.57;102413.44;4992290;28;20388;-76
2022/03/08 01:28:41;;;;;;;;;;;;;;;1.47;72.14;102416.22;4994222;28;19932;-74
2022/03/08 01:31:06;;;;;;;;;;;;;;;1.48;71.04;102418.84;4971456;28;19922;-77
2022/03/08 01:33:35;;;;;;;;;;;;;;;1.58;70.21;102409.50;4971768;28;19922;-77
2022/03/08 01:36:00;;;;;;;;;;;;;;;1.63;69.74;102400.09;4972494;28;19922;-77
2022/03/08 01:38:26;;;;;;;;;;;;;;;1.66;69.55;102410.50;4974663;28;20034;-78
2022/03/08 01:40:51;;;;;;;;;;;;;;;1.67;68.47;102401.00;4970780;28;19977;-75
2022/03/08 01:43:17;;;;;;;;;;;;;;;1.66;68.08;102407.91;4974374;28;20385;-75
2022/03/08 01:45:42;;;;;;;;;;;;;;;1.68;68.15;102402.75;4980681;28;19956;-73
2022/03/08 01:48:07;;;;;;;;;;;;;;;1.66;68.18;102394.94;4980906;28;19941;-73
2022/03/08 01:50:33;;;;;;;;;;;;;;;1.62;68.32;102400.94;4990235;28;20458;-74
2022/03/08 01:52:58;;;;;;;;;;;;;;;1.64;67.27;102388.91;4985602;28;19975;-74
2022/03/08 01:55:25;;;;;;;;;;;;;;;1.61;66.93;102396.59;4986438;28;20648;-73
2022/03/08 01:57:51;;;;;;;;;;;;;;;1.59;67.51;102387.94;4976830;28;19926;-73
2022/03/08 02:00:18;;;;;;;;;;;;;;;1.53;67.60;102387.84;4984693;28;19930;-74
2022/03/08 02:02:44;;;;;;;;;;;;;;;1.48;68.17;102390.38;4982424;28;19929;-78
2022/03/08 02:05:09;;;;;;;;;;;;;;;1.49;67.55;102396.41;4990417;28;19921;-77
2022/03/08 02:07:35;;;;;;;;;;;;;;;1.47;68.16;102398.09;4989600;28;19933;-77
2022/03/08 02:10:00;;;;;;;;;;;;;;;1.44;68.23;102393.75;4988245;28;19932;-77
2022/03/08 02:12:25;;;;;;;;;;;;;;;1.41;68.33;102388.50;4991556;28;20387;-78
2022/03/08 02:14:51;;;;;;;;;;;;;;;1.41;67.81;102383.31;4987247;28;19984;-75
2022/03/08 02:17:16;;;;;;;;;;;;;;;1.37;67.57;102386.72;4988464;28;20012;-75
2022/03/08 02:19:42;;;;;;;;;;;;;;;1.36;67.56;102388.44;4985035;28;19986;-73
2022/03/08 02:22:07;;;;;;;;;;;;;;;1.41;67.27;102377.28;4965625;28;19937;-74
2022/03/08 02:24:32;;;;;;;;;;;;;;;1.35;67.87;102383.25;4973772;28;19929;-76
2022/03/08 02:26:58;;;;;;;;;;;;;;;1.28;67.76;102387.44;4984696;28;20319;-75
2022/03/08 02:29:24;;;;;;;;;;;;;;;1.30;67.47;102380.56;4969144;28;19933;-75
2022/03/08 02:31:49;;;;;;;;;;;;;;;1.33;67.97;102378.00;4969691;28;20738;-77
2022/03/08 02:34:15;;;;;;;;;;;;;;;1.27;68.10;102367.56;5000750;28;19980;-75
2022/03/08 02:36:41;;;;;;;;;;;;;;;1.31;67.71;102360.72;4977766;28;19925;-74
2022/03/08 02:39:06;;;;;;;;;;;;;;;1.41;66.77;102359.16;4980829;28;20658;-73
2022/03/08 02:41:32;;;;;;;;;;;;;;;1.40;66.41;102350.50;4989383;28;19926;-75
2022/03/08 02:43:57;;;;;;;;;;;;;;;1.36;66.91;102351.31;4989064;28;19932;-74
2022/03/08 02:46:22;;;;;;;;;;;;;;;1.31;66.93;102348.66;4988152;28;19922;-76
2022/03/08 02:48:48;;;;;;;;;;;;;;;1.33;66.37;102346.09;4988651;28;20388;-77
2022/03/08 02:51:13;;;;;;;;;;;;;;;1.36;66.98;102336.63;4986725;28;19921;-77
2022/03/08 02:53:38;;;;;;;;;;;;;;;1.28;67.13;102340.84;4987066;28;19922;-77
2022/03/08 02:56:04;;;;;;;;;;;;;;;1.31;66.89;102340.91;4987215;28;20045;-75
2022/03/08 02:58:29;;;;;;;;;;;;;;;1.31;66.68;102332.25;4989399;28;19921;-75
2022/03/08 03:00:54;;;;;;;;;;;;;;;1.36;66.53;102328.88;4986807;28;19929;-71
2022/03/08 03:03:20;;;;;;;;;;;;;;;1.33;66.02;102328.81;4987260;28;20472;-71
2022/03/08 03:05:45;;;;;;;;;;;;;;;1.31;66.18;102333.13;4986935;28;19929;-70
2022/03/08 03:08:10;;;;;;;;;;;;;;;1.23;66.52;102330.41;4985029;28;20032;-69
2022/03/08 03:10:36;;;;;;;;;;;;;;;1.16;66.78;102332.88;4985437;28;19930;-71
2022/03/08 03:13:01;;;;;;;;;;;;;;;1.11;67.29;102327.63;4984076;28;19922;-69
2022/03/08 03:15:28;;;;;;;;;;;;;;;1.09;67.33;102324.13;4986708;28;20373;-70
2022/03/08 03:17:53;;;;;;;;;;;;;;;1.05;67.40;102323.19;4986488;28;19918;-69
2022/03/08 03:20:19;;;;;;;;;;;;;;;1.01;67.89;102324.00;4986198;28;19918;-71
2022/03/08 03:22:45;;;;;;;;;;;;;;;0.92;68.02;102322.13;4988164;28;19917;-68
2022/03/08 03:25:11;;;;;;;;;;;;;;;0.85;69.21;102328.03;4983841;28;19949;-69
2022/03/08 03:27:36;;;;;;;;;;;;;;;0.77;69.43;102338.22;4986423;28;20008;-72
2022/03/08 03:30:03;;;;;;;;;;;;;;;0.79;70.58;102329.63;4985098;28;20400;-72
2022/03/08 03:32:29;;;;;;;;;;;;;;;0.74;70.69;102332.13;4987906;28;20570;-71
2022/03/08 03:34:54;;;;;;;;;;;;;;;0.75;70.68;102333.88;4985270;28;20477;-71
2022/03/08 03:37:20;;;;;;;;;;;;;;;0.66;70.92;102331.13;4985381;28;19925;-70
2022/03/08 03:39:45;;;;;;;;;;;;;;;0.61;71.69;102333.63;4985763;28;19994;-71
2022/03/08 03:42:10;;;;;;;;;;;;;;;0.57;71.51;102332.72;4984477;28;19922;-70
2022/03/08 03:44:36;;;;;;;;;;;;;;;0.55;71.92;102330.94;4986220;28;19922;-68
2022/03/08 03:47:01;;;;;;;;;;;;;;;0.53;72.58;102335.22;4984272;28;19921;-70
2022/03/08 03:49:26;;;;;;;;;;;;;;;0.51;72.75;102340.34;4987332;28;20012;-70
2022/03/08 03:51:53;;;;;;;;;;;;;;;0.47;73.01;102338.53;4987883;28;19917;-72
2022/03/08 03:54:19;;;;;;;;;;;;;;;0.43;73.39;102344.50;4985689;28;20561;-72
2022/03/08 03:56:44;;;;;;;;;;;;;;;0.44;73.65;102341.06;4986362;28;19926;-72
2022/03/08 03:59:09;;;;;;;;;;;;;;;0.40;74.66;102336.66;4998686;28;19929;-71
2022/03/08 04:01:35;;;;;;;;;;;;;;;0.44;74.48;102333.31;4987986;28;19921;-71
2022/03/08 04:04:00;;;;;;;;;;;;;;;0.45;75.09;102329.88;4984702;28;19924;-70
2022/03/08 04:06:25;;;;;;;;;;;;;;;0.40;75.62;102337.56;4986418;28;19924;-71
2022/03/08 04:08:51;;;;;;;;;;;;;;;0.44;75.41;102330.72;4986924;28;19918;-71
2022/03/08 04:11:16;;;;;;;;;;;;;;;0.48;74.50;102337.72;4985725;28;19997;-69
2022/03/08 04:13:41;;;;;;;;;;;;;;;0.54;74.88;102340.41;4988889;28;19922;-68
2022/03/08 04:16:07;;;;;;;;;;;;;;;0.54;73.66;102332.66;4986098;28;20482;-69
2022/03/08 04:18:32;;;;;;;;;;;;;;;0.58;74.20;102326.69;4978119;28;19926;-68
2022/03/08 04:20:57;;;;;;;;;;;;;;;0.57;73.98;102326.66;4986054;28;19925;-69
2022/03/08 04:23:22;;;;;;;;;;;;;;;0.61;73.69;102331.03;4986268;28;20312;-69
2022/03/08 04:25:48;;;;;;;;;;;;;;;0.56;73.07;102324.91;4987406;28;19921;-70
2022/03/08 04:28:13;;;;;;;;;;;;;;;0.52;73.50;102315.38;4984867;28;19926;-69
2022/03/08 04:30:38;;;;;;;;;;;;;;;0.51;73.38;102311.03;5016947;28;19917;-70
2022/03/08 04:33:04;;;;;;;;;;;;;;;0.47;72.72;102312.69;4986099;28;19924;-70
2022/03/08 04:35:29;;;;;;;;;;;;;;;0.50;72.32;102306.69;4989309;28;20505;-71
2022/03/08 04:37:54;;;;;;;;;;;;;;;0.57;71.59;102308.53;4987778;28;19918;-70
2022/03/08 04:40:20;;;;;;;;;;;;;;;0.68;70.90;102301.84;4985190;28;19961;-70
2022/03/08 04:42:46;;;;;;;;;;;;;;;0.71;69.74;102291.56;4986590;28;19922;-70
2022/03/08 04:45:12;;;;;;;;;;;;;;;0.79;69.14;102294.31;4983455;28;20301;-70
2022/03/08 04:47:38;;;;;;;;;;;;;;;0.75;69.19;102290.78;4987936;28;20020;-72
2022/03/08 04:50:04;;;;;;;;;;;;;;;0.74;69.05;102283.88;4985612;28;20012;-71
2022/03/08 04:52:29;;;;;;;;;;;;;;;0.70;68.66;102282.06;4989241;28;19928;-71
2022/03/08 04:54:55;;;;;;;;;;;;;;;0.69;68.59;102284.63;4987412;28;20020;-72
2022/03/08 04:57:20;;;;;;;;;;;;;;;0.72;67.79;102282.97;4986300;28;19926;-71
2022/03/08 04:59:45;;;;;;;;;;;;;;;0.67;68.33;102276.84;4986782;28;20636;-69
2022/03/08 05:02:11;;;;;;;;;;;;;;;0.66;67.85;102282.88;4985176;28;20024;-69
2022/03/08 05:04:36;;;;;;;;;;;;;;;0.68;67.11;102270.81;4986784;28;19959;-69
2022/03/08 05:07:01;;;;;;;;;;;;;;;0.60;68.03;102277.56;4986267;28;20336;-71
2022/03/08 05:09:27;;;;;;;;;;;;;;;0.64;67.49;102271.63;4986079;28;19929;-69
2022/03/08 05:11:52;;;;;;;;;;;;;;;0.64;67.64;102270.75;4986716;28;20471;-69
2022/03/08 05:14:17;;;;;;;;;;;;;;;0.75;66.41;102271.78;4985874;28;19921;-70
2022/03/08 05:16:43;;;;;;;;;;;;;;;0.78;66.11;102271.84;4987791;28;19918;-71
2022/03/08 05:19:08;;;;;;;;;;;;;;;0.81;66.19;102273.63;4979182;28;19972;-70
2022/03/08 05:21:33;;;;;;;;;;;;;;;0.76;66.91;102268.38;4975126;28;20295;-69
2022/03/08 05:23:59;;;;;;;;;;;;;;;0.81;66.58;102258.97;4984304;28;19922;-68
2022/03/08 05:26:24;;;;;;;;;;;;;;;0.71;66.78;102260.53;4985152;28;21023;-69
2022/03/08 05:28:49;;;;;;;;;;;;;;;0.71;66.82;102264.84;4983136;28;20389;-69
2022/03/08 05:31:14;;;;;;;;;;;;;;;0.64;66.56;102262.97;4980668;28;19922;-68
2022/03/08 05:33:40;;;;;;;;;;;;;;;0.55;67.39;102258.53;4990982;28;20486;-68
2022/03/08 05:36:05;;;;;;;;;;;;;;;0.54;67.40;102254.22;4987966;28;19926;-69
2022/03/08 05:38:31;;;;;;;;;;;;;;;0.54;66.81;102262.81;4990668;28;20380;-70
2022/03/08 05:40:56;;;;;;;;;;;;;;;0.52;66.87;102263.66;4989239;28;21255;-69
2022/03/08 05:43:21;;;;;;;;;;;;;;;0.42;67.79;102263.47;4988872;28;20280;-70
2022/03/08 05:45:47;;;;;;;;;;;;;;;0.46;67.20;102254.06;4989466;28;19928;-69
2022/03/08 05:48:12;;;;;;;;;;;;;;;0.62;66.91;102252.63;4987719;28;19926;-70
2022/03/08 05:50:37;;;;;;;;;;;;;;;0.57;66.42;102252.53;4980727;28;19918;-72
2022/03/08 05:53:03;;;;;;;;;;;;;;;0.70;65.85;102245.84;4973856;28;19922;-69
2022/03/08 05:55:28;;;;;;;;;;;;;;;0.66;66.46;102267.34;5023426;28;19925;-69
2022/03/08 05:57:53;;;;;;;;;;;;;;;0.60;66.04;102268.13;4965203;28;19926;-70
2022/03/08 06:00:19;;;;;;;;;;;;;;;0.64;66.00;102274.22;4980849;28;19929;-72
2022/03/08 06:02:44;;;;;;;;;;;;;;;0.73;65.99;102274.38;4969563;28;19918;-71
2022/03/08 06:05:10;;;;;;;;;;;;;;;0.70;65.76;102273.44;4979786;28;20012;-70
2022/03/08 06:07:35;;;;;;;;;;;;;;;0.69;67.39;102280.31;4991291;28;20265;-73
2022/03/08 06:10:00;;;;;;;;;;;;;;;0.55;67.08;102269.75;4979178;28;20297;-72
2022/03/08 06:12:25;;;;;;;;;;;;;;;0.48;67.73;102279.94;4981001;28;19918;-71
2022/03/08 06:14:51;;;;;;;;;;;;;;;0.46;67.54;102280.78;4988103;28;19918;-71
2022/03/08 06:17:16;;;;;;;;;;;;;;;0.43;68.21;102277.25;4986136;28;19922;-71
2022/03/08 06:19:41;;;;;;;;;;;;;;;0.37;68.86;102275.44;4982322;28;19922;-70
2022/03/08 06:22:07;;;;;;;;;;;;;;;0.36;67.95;102278.88;4981990;28;19921;-72
2022/03/08 06:24:32;;;;;;;;;;;;;;;0.43;67.34;102275.56;4985611;28;20376;-70
2022/03/08 06:26:58;;;;;;;;;;;;;;;0.38;68.31;102274.59;5018552;28;19958;-70
2022/03/08 06:29:23;;;;;;;;;;;;;;;0.40;67.16;102270.34;4984829;28;20435;-69
2022/03/08 06:31:48;;;;;;;;;;;;;;;0.47;67.63;102276.50;4988512;28;19922;-69
2022/03/08 06:34:13;;;;;;;;;;;;;;;0.45;67.42;102268.69;4988792;28;19976;-69
2022/03/08 06:36:39;;;;;;;;;;;;;;;0.46;66.85;102270.44;4990756;28;19918;-69
2022/03/08 06:39:05;;;;;;;;;;;;;;;0.48;67.18;102269.59;4988427;28;20413;-70
2022/03/08 06:41:32;;;;;;;;;;;;;;;0.52;66.18;102264.50;4992233;28;20351;-70
2022/03/08 06:43:58;;;;;;;;;;;;;;;0.63;66.13;102266.41;4975331;28;20016;-70
2022/03/08 06:46:23;;;;;;;;;;;;;;;0.58;66.46;102264.63;4980050;28;20004;-70
2022/03/08 06:48:48;;;;;;;;;;;;;;;0.60;66.16;102265.53;4987982;28;19932;-70
2022/03/08 06:51:14;;;;;;;;;;;;;;;0.65;66.02;102265.59;4981732;28;19918;-70
2022/03/08 06:53:40;;;;;;;;;;;;;;;0.65;65.58;102260.44;4990297;28;20373;-71
2022/03/08 06:56:05;;;;;;;;;;;;;;;0.74;66.30;102267.47;4989446;28;19924;-70
2022/03/08 06:58:30;;;;;;;;;;;;;;;0.77;65.79;102259.75;4989165;28;19928;-70
2022/03/08 07:00:56;;;;;;;;;;;;;;;0.84;65.39;102261.59;4986795;28;19918;-70
2022/03/08 07:03:21;;;;;;;;;;;;;;;0.89;64.82;102265.16;4988000;28;19918;-70
2022/03/08 07:05:46;;;;;;;;;;;;;;;0.99;64.50;102252.34;4987537;28;19964;-71
2022/03/08 07:08:12;;;;;;;;;;;;;;;0.94;64.25;102257.47;4987408;28;19922;-69
2022/03/08 07:10:37;;;;;;;;;;;;;;;1.02;64.75;102255.84;4989337;28;19925;-70
2022/03/08 07:13:02;;;;;;;;;;;;;;;1.02;65.00;102271.38;4987607;28;19929;-69
2022/03/08 07:15:28;;;;;;;;;;;;;;;1.10;64.32;102253.41;4988231;28;20381;-70
2022/03/08 07:17:53;;;;;;;;;;;;;;;1.14;63.84;102259.47;4987586;28;19917;-70
2022/03/08 07:20:18;;;;;;;;;;;;;;;1.25;64.10;102264.84;5018744;28;20537;-71
2022/03/08 07:22:44;;;;;;;;;;;;;;;1.29;63.72;102261.44;4986940;28;19921;-71
2022/03/08 07:25:10;;;;;;;;;;;;;;;1.28;63.70;102255.41;4987003;28;20024;-72
2022/03/08 07:27:35;;;;;;;;;;;;;;;1.34;64.19;102255.47;5018509;28;19988;-71
2022/03/08 07:30:02;;;;;;;;;;;;;;;1.36;63.67;102251.19;4986131;28;20440;-71
2022/03/08 07:32:28;;;;;;;;;;;;;;;1.43;62.60;102248.72;4989084;28;19917;-70
2022/03/08 07:34:53;;;;;;;;;;;;;;;1.61;62.05;102258.41;4986773;28;19968;-70
2022/03/08 07:37:18;;;;;;;;;;;;;;;1.61;61.79;102259.31;4985727;28;19921;-70
2022/03/08 07:39:43;;;;;;;;;;;;;;;1.63;62.26;102255.03;4985650;28;20527;-70
2022/03/08 07:42:09;;;;;;;;;;;;;;;1.69;62.67;102242.13;4986728;28;19918;-72
2022/03/08 07:44:36;;;;;;;;;;;;;;;1.75;62.41;102248.25;4988071;28;20407;-73
2022/03/08 07:47:02;;;;;;;;;;;;;;;1.77;62.04;102260.38;4986771;28;19917;-71
2022/03/08 07:49:27;;;;;;;;;;;;;;;1.78;60.82;102262.13;4989552;28;19934;-71
2022/03/08 07:51:53;;;;;;;;;;;;;;;1.84;62.10;102263.94;4987391;28;20520;-72
2022/03/08 07:54:18;;;;;;;;;;;;;;;1.90;61.14;102266.56;4984079;28;19969;-72
2022/03/08 07:56:43;;;;;;;;;;;;;;;1.89;61.06;102258.78;4987101;28;20001;-72
2022/03/08 07:59:09;;;;;;;;;;;;;;;2.00;61.56;102259.78;4986234;28;20005;-71
2022/03/08 08:01:34;;;;;;;;;;;;;;;2.11;60.54;102257.31;4987561;28;19922;-70
2022/03/08 08:04:00;;;;;;;;;;;;;;;2.11;60.44;102273.75;4983752;28;20586;-71
2022/03/08 08:06:25;;;;;;;;;;;;;;;1.98;60.24;102264.97;4986247;28;19924;-70
2022/03/08 08:08:50;;;;;;;;;;;;;;;2.26;57.95;102260.09;4983719;28;20384;-71
2022/03/08 08:11:16;;;;;;;;;;;;;;;2.28;58.05;102254.91;4984869;28;20230;-71
2022/03/08 08:13:41;;;;;;;;;;;;;;;2.45;58.04;102235.22;4988338;28;20000;-71
2022/03/08 08:16:07;;;;;;;;;;;;;;;2.55;57.75;102256.06;4984540;28;19922;-70
2022/03/08 08:18:32;;;;;;;;;;;;;;;2.39;57.89;102268.00;4987064;28;19930;-71
2022/03/08 08:20:57;;;;;;;;;;;;;;;2.43;57.95;102260.25;4986845;28;19926;-70
2022/03/08 08:23:23;;;;;;;;;;;;;;;2.67;57.55;102265.66;4984206;28;19918;-71
2022/03/08 08:25:48;;;;;;;;;;;;;;;2.70;56.76;102265.69;4983443;28;19921;-70
2022/03/08 08:28:14;;;;;;;;;;;;;;;2.77;56.34;102257.09;4986364;28;20029;-70
2022/03/08 08:30:39;;;;;;;;;;;;;;;2.72;56.71;102271.78;4987919;28;19930;-70
2022/03/08 08:33:04;;;;;;;;;;;;;;;2.80;57.14;102270.13;4986017;28;19945;-70
2022/03/08 08:35:30;;;;;;;;;;;;;;;2.84;56.68;102260.63;4982159;28;19926;-70
2022/03/08 08:37:55;;;;;;;;;;;;;;;3.15;55.55;102256.56;4999301;28;19922;-70
2022/03/08 08:40:20;;;;;;;;;;;;;;;4.56;52.26;102258.84;4967214;28;19930;-70
2022/03/08 08:42:45;;;;;;;;;;;;;;;5.84;48.19;102250.88;4975888;28;19924;-70
2022/03/08 08:45:11;;;;;;;;;;;;;;;6.72;46.26;102254.72;4976196;28;19918;-70
2022/03/08 08:47:36;;;;;;;;;;;;;;;8.43;43.10;102251.06;4980656;28;19932;-71
2022/03/08 08:50:02;;;;;;;;;;;;;;;10.03;38.92;102235.91;4979442;28;19918;-71
2022/03/08 08:52:28;;;;;;;;;;;;;;;10.58;37.26;102243.47;4988942;28;19929;-71
2022/03/08 08:54:53;;;;;;;;;;;;;;;8.72;39.21;102252.38;4981782;28;20323;-72
2022/03/08 08:57:18;;;;;;;;;;;;;;;8.45;40.27;102258.88;4970907;28;20385;-72
2022/03/08 08:59:44;;;;;;;;;;;;;;;8.43;41.05;102248.44;4986165;28;19940;-71
2022/03/08 09:02:09;;;;;;;;;;;;;;;9.07;40.31;102247.44;4986282;28;20537;-71
2022/03/08 09:04:34;;;;;;;;;;;;;;;9.77;38.98;102240.88;4987388;28;20493;-72
2022/03/08 09:07:00;;;;;;;;;;;;;;;10.31;37.56;102237.03;5019893;28;20001;-73
2022/03/08 09:09:25;;;;;;;;;;;;;;;9.26;39.61;102247.97;4988508;28;19921;-74
2022/03/08 09:11:51;;;;;;;;;;;;;;;7.96;42.09;102248.22;4983511;28;20341;-72
2022/03/08 09:14:16;;;;;;;;;;;;;;;9.59;39.21;102235.13;4990710;28;20285;-72
2022/03/08 09:16:42;;;;;;;;;;;;;;;8.43;40.63;102244.97;5021452;28;19922;-72
2022/03/08 09:19:08;;;;;;;;;;;;;;;8.13;42.76;102232.28;4985152;28;19933;-72
2022/03/08 09:21:33;;;;;;;;;;;;;;;8.23;41.53;102225.16;4994274;28;19922;-71
2022/03/08 09:23:59;;;;;;;;;;;;;;;8.70;40.66;102225.34;4991039;28;19917;-72
2022/03/08 09:26:24;;;;;;;;;;;;;;;8.57;41.27;102219.44;4987854;28;20322;-72
2022/03/08 09:28:49;;;;;;;;;;;;;;;9.94;38.09;102207.22;4985298;28;19953;-71
2022/03/08 09:31:14;;;;;;;;;;;;;;;9.82;38.51;102199.63;4988609;28;19969;-71
2022/03/08 09:33:41;;;;;;;;;;;;;;;10.57;36.55;102204.94;4990399;28;19917;-71
2022/03/08 09:36:07;;;;;;;;;;;;;;;9.36;37.45;102206.69;4989387;28;20361;-71
2022/03/08 09:38:33;;;;;;;;;;;;;;;9.86;37.50;102196.03;4991851;28;20012;-72
2022/03/08 09:41:00;;;;;;;;;;;;;;;10.55;35.94;102193.59;5020953;28;19926;-71
2022/03/08 09:43:25;;;;;;;;;;;;;;;11.26;34.39;102191.72;4989400;28;19917;-70
2022/03/08 09:45:50;;;;;;;;;;;;;;;12.09;32.14;102184.06;4990054;28;19928;-72
2022/03/08 09:48:18;;;;;;;;;;;;;;;11.72;32.37;102186.03;4986172;28;20322;-72
2022/03/08 09:50:43;;;;;;;;;;;;;;;12.26;31.37;102183.53;4988054;28;19930;-71
2022/03/08 09:53:10;;;;;;;;;;;;;;;11.61;31.55;102194.28;4988974;28;20041;-73
2022/03/08 09:55:35;;;;;;;;;;;;;;;12.53;30.43;102177.38;4991986;28;19949;-71
2022/03/08 09:58:01;;;;;;;;;;;;;;;11.82;31.07;102186.63;4987781;28;20551;-72
2022/03/08 10:00:27;;;;;;;;;;;;;;;11.99;31.29;102183.53;4987881;28;20049;-73
2022/03/08 10:03:07;;;;;;;;;;;;;;;12.71;29.86;102172.38;4982725;28;20456;-73
2022/03/08 10:08:18;;;;;;;;;;;;;;;13.59;29.37;102171.03;4987182;28;20253;-73
2022/03/08 10:10:59;;;;;;;;;;;;;;;12.78;29.80;102166.00;4989639;28;19961;-70
2022/03/08 10:13:42;;;;;;;;;;;;;;;13.74;28.33;102162.53;4985315;28;19956;-69
2022/03/08 10:16:24;;;;;;;;;;;;;;;14.03;27.99;102154.38;4985991;28;20651;-68
2022/03/08 10:18:50;;;;;;;;;;;;;;;13.34;28.77;102156.06;4984759;28;20029;-71
2022/03/08 10:21:31;;;;;;;;;;;;;;;13.02;28.20;102137.00;4981366;28;19921;-71
2022/03/08 10:23:57;;;;;;;;;;;;;;;12.45;29.26;102150.41;4986857;28;19918;-71
2022/03/08 10:26:23;;;;;;;;;;;;;;;12.90;27.99;102145.38;4986097;28;20005;-71
2022/03/08 10:28:50;;;;;;;;;;;;;;;13.36;27.92;102143.69;4985221;28;20064;-70
2022/03/08 10:31:16;;;;;;;;;;;;;;;12.64;27.80;102141.88;4987901;28;19921;-72
2022/03/08 10:33:41;;;;;;;;;;;;;;;12.42;28.81;102149.63;5002275;28;19956;-71
2022/03/08 10:36:22;;;;;;;;;;;;;;;12.53;28.74;102145.75;4988874;28;20020;-75
2022/03/08 10:39:03;;;;;;;;;;;;;;;13.08;28.14;102130.63;4987809;28;19921;-74
2022/03/08 10:41:28;;;;;;;;;;;;;;;13.05;28.27;102136.91;4987601;28;19933;-72
2022/03/08 10:43:55;;;;;;;;;;;;;;;13.37;27.74;102134.00;4981683;28;19922;-74
2022/03/08 10:46:21;;;;;;;;;;;;;;;13.43;28.57;102137.31;4988894;28;19933;-76
2022/03/08 10:48:47;;;;;;;;;;;;;;;13.52;27.77;102130.78;4988530;28;19921;-73
2022/03/08 10:54:09;;;;;;;;;;;;;;;12.32;29.65;102146.47;4988518;28;20005;-73
2022/03/08 10:56:41;;;;;;;;;;;;;;;11.89;29.70;102141.66;4982973;28;19918;-72
2022/03/08 10:59:06;;;;;;;;;;;;;;;11.75;30.39;102141.19;4988843;28;19973;-72
2022/03/08 11:01:31;;;;;;;;;;;;;;;11.80;30.77;102134.00;4988281;28;19923;-72
2022/03/08 11:03:58;;;;;;;;;;;;;;;11.03;31.80;102137.16;4983331;28;19922;-75
2022/03/08 11:06:24;;;;;;;;;;;;;;;10.69;32.92;102142.47;4981936;28;19922;-75
2022/03/08 11:08:50;;;;;;;;;;;;;;;9.86;34.05;102138.28;4987985;28;19922;-72
2022/03/08 11:11:15;;;;;;;;;;;;;;;9.48;35.07;102143.50;4987896;28;20297;-73
2022/03/08 11:13:42;;;;;;;;;;;;;;;8.67;35.63;102128.47;4988222;28;19924;-71
2022/03/08 11:16:09;;;;;;;;;;;;;;;8.54;36.02;102129.56;4987461;28;19921;-71
2022/03/08 11:18:36;;;;;;;;;;;;;;;8.23;36.43;102123.03;4988641;28;19921;-71
2022/03/08 11:21:03;;;;;;;;;;;;;;;8.25;37.30;102131.75;4987939;28;19918;-70
2022/03/08 11:23:29;;;;;;;;;;;;;;;8.34;38.22;102125.50;4989171;28;19944;-71
2022/03/08 11:25:55;;;;;;;;;;;;;;;8.26;37.13;102111.69;4986891;28;19925;-72
2022/03/08 11:28:21;;;;;;;;;;;;;;;8.39;36.86;102115.78;4982846;28;19934;-73
2022/03/08 11:30:48;;;;;;;;;;;;;;;8.43;37.66;102109.63;4985273;28;19926;-73
2022/03/08 11:33:29;;;;;;;;;;;;;;;8.40;37.42;102114.91;4987602;28;19926;-71
2022/03/08 11:36:10;;;;;;;;;;;;;;;8.50;37.52;102111.28;4987402;28;20061;-73
2022/03/08 11:38:35;;;;;;;;;;;;;;;8.50;36.30;102097.31;4986647;28;20296;-75
2022/03/08 11:41:00;;;;;;;;;;;;;;;8.33;35.99;102103.69;4986912;28;19982;-73
2022/03/08 11:43:41;;;;;;;;;;;;;;;8.39;37.13;102102.69;4988026;28;19918;-73
2022/03/08 11:46:22;;;;;;;;;;;;;;;8.46;37.04;102096.50;4986480;28;19956;-73
2022/03/08 11:49:03;;;;;;;;;;;;;;;8.13;37.67;102100.53;4987627;28;19918;-73
2022/03/08 11:51:29;;;;;;;;;;;;;;;8.20;37.36;102087.31;4987948;28;20422;-74
2022/03/08 11:54:10;;;;;;;;;;;;;;;8.23;38.11;102090.78;4965968;28;20799;-74
2022/03/08 11:56:51;;;;;;;;;;;;;;;8.42;37.26;102084.31;4982278;28;19952;-73
2022/03/08 11:59:17;;;;;;;;;;;;;;;8.30;36.32;102081.91;4981747;28;20520;-73
2022/03/08 12:01:42;;;;;;;;;;;;;;;8.27;37.13;102084.63;4988338;28;20373;-72
2022/03/08 12:04:23;;;;;;;;;;;;;;;8.39;36.60;102081.75;4986338;28;19934;-72
2022/03/08 12:06:50;;;;;;;;;;;;;;;8.47;36.72;102079.91;4988110;28;19998;-74
2022/03/08 12:09:18;;;;;;;;;;;;;;;8.46;36.40;102072.03;4985214;28;19946;-71
2022/03/08 12:11:59;;;;;;;;;;;;;;;8.40;37.01;102073.00;4988599;28;19921;-72
2022/03/08 12:14:26;;;;;;;;;;;;;;;8.23;37.39;102077.69;4985860;28;19929;-71
2022/03/08 12:16:53;;;;;;;;;;;;;;;8.46;36.73;102072.91;4986730;28;20508;-72
2022/03/08 12:19:20;;;;;;;;;;;;;;;8.39;37.36;102075.66;4979427;28;20541;-72
2022/03/08 12:21:46;;;;;;;;;;;;;;;8.53;36.05;102064.97;4988287;28;19972;-71
2022/03/08 12:24:13;;;;;;;;;;;;;;;8.65;36.66;102070.81;4985569;28;20008;-72
2022/03/08 12:26:38;;;;;;;;;;;;;;;8.68;35.72;102061.19;4988679;28;19975;-71
2022/03/08 12:29:04;;;;;;;;;;;;;;;8.54;35.89;102061.47;4985778;28;19926;-71
2022/03/08 12:31:29;;;;;;;;;;;;;;;8.61;35.46;102052.59;5018125;28;19924;-71
2022/03/08 12:34:10;;;;;;;;;;;;;;;8.68;35.99;102059.44;4986921;28;19926;-71
2022/03/08 12:36:35;;;;;;;;;;;;;;;8.63;35.49;102056.03;4981194;28;19918;-71
2022/03/08 12:39:01;;;;;;;;;;;;;;;8.66;35.40;102041.13;4987538;28;19993;-72
2022/03/08 12:41:27;;;;;;;;;;;;;;;8.76;34.69;102033.09;4987546;28;19918;-72
2022/03/08 12:44:07;;;;;;;;;;;;;;;8.53;35.13;102028.28;4992489;28;19918;-72
2022/03/08 12:46:33;;;;;;;;;;;;;;;8.57;35.45;102027.34;4970932;28;20000;-73